createdAt,value
2022-08-27T00:00:52.694Z,7.20
2022-08-27T00:03:23.275Z,8.47
2022-08-27T00:05:52.206Z,9.03
2022-08-27T00:08:21.335Z,7.80
2022-08-27T00:10:50.419Z,8.63
2022-08-27T00:13:19.525Z,8.20
2022-08-27T00:15:49.364Z,8.00
2022-08-27T00:18:22.435Z,8.40
2022-08-27T00:20:53.146Z,8.33
2022-08-27T00:23:22.073Z,7.83
2022-08-27T00:25:51.042Z,7.87
2022-08-27T00:28:20.412Z,7.47
2022-08-27T00:30:49.674Z,7.93
2022-08-27T00:33:18.863Z,7.70
2022-08-27T00:35:47.974Z,7.47
2022-08-27T00:38:19.821Z,7.77
2022-08-27T00:40:49.222Z,7.77
2022-08-27T00:43:23.207Z,6.97
2022-08-27T00:45:54.249Z,7.20
2022-08-27T00:48:25.513Z,7.23
2022-08-27T00:50:56.363Z,7.37
2022-08-27T00:53:29.749Z,7.03
2022-08-27T00:56:03.347Z,7.80
2022-08-27T00:58:35.374Z,7.40
2022-08-27T01:01:06.826Z,7.70
2022-08-27T01:03:36.063Z,7.67
2022-08-27T01:06:08.631Z,7.77
2022-08-27T01:08:42.898Z,7.37
2022-08-27T01:11:12.343Z,7.70
2022-08-27T01:13:59.858Z,7.97
2022-08-27T01:16:34.706Z,7.27
2022-08-27T01:19:07.234Z,7.83
2022-08-27T01:21:43.091Z,7.00
2022-08-27T01:24:26.079Z,7.83
2022-08-27T01:26:55.284Z,8.00
2022-08-27T01:29:24.620Z,7.60
2022-08-27T01:31:53.517Z,7.90
2022-08-27T01:34:22.774Z,7.70
2022-08-27T01:36:57.273Z,8.07
2022-08-27T01:39:28.632Z,7.80
2022-08-27T01:42:05.126Z,8.33
2022-08-27T01:44:48.597Z,8.23
2022-08-27T01:47:19.613Z,7.17
2022-08-27T01:49:49.587Z,7.67
2022-08-27T01:52:21.470Z,7.30
2022-08-27T01:54:53.151Z,7.80
2022-08-27T01:57:26.063Z,7.60
2022-08-27T01:59:56.942Z,7.80
2022-08-27T02:02:26.413Z,7.50
2022-08-27T02:04:55.543Z,7.50
2022-08-27T02:07:24.903Z,8.00
2022-08-27T02:09:55.286Z,7.97
2022-08-27T02:12:24.711Z,8.33
2022-08-27T02:14:53.828Z,8.10
2022-08-27T02:17:22.752Z,8.23
2022-08-27T02:19:52.327Z,7.80
2022-08-27T02:22:21.434Z,8.43
2022-08-27T02:24:51.610Z,8.33
2022-08-27T02:27:22.306Z,8.27
2022-08-27T02:29:51.745Z,8.37
2022-08-27T02:32:31.557Z,8.53
2022-08-27T02:35:01.816Z,8.00
2022-08-27T02:37:31.019Z,7.30
2022-08-27T02:40:01.630Z,7.80
2022-08-27T02:42:32.529Z,8.03
2022-08-27T02:45:01.450Z,7.67
2022-08-27T02:47:30.958Z,8.27
2022-08-27T02:50:00.229Z,8.03
2022-08-27T02:52:30.515Z,8.23
2022-08-27T02:55:00.313Z,8.07
2022-08-27T02:57:32.355Z,8.33
2022-08-27T03:00:06.963Z,7.97
2022-08-27T03:02:37.191Z,8.10
2022-08-27T03:05:07.628Z,8.30
2022-08-27T03:07:37.385Z,7.83
2022-08-27T03:10:08.114Z,8.60
2022-08-27T03:12:38.778Z,8.00
2022-08-27T03:15:10.699Z,8.63
2022-08-27T03:17:57.147Z,8.13
2022-08-27T03:20:27.090Z,8.27
2022-08-27T03:22:56.942Z,8.40
2022-08-27T03:25:26.595Z,8.23
2022-08-27T03:27:56.803Z,8.17
2022-08-27T03:30:26.587Z,7.90
2022-08-27T03:32:55.455Z,7.97
2022-08-27T03:35:24.738Z,8.00
2022-08-27T03:37:53.887Z,8.20
2022-08-27T03:40:23.158Z,8.07
2022-08-27T03:42:52.054Z,8.10
2022-08-27T03:45:22.463Z,7.90
2022-08-27T03:47:51.782Z,8.17
2022-08-27T03:50:21.325Z,8.03
2022-08-27T03:52:50.278Z,8.17
2022-08-27T03:55:19.325Z,8.20
2022-08-27T03:57:49.253Z,8.17
2022-08-27T04:00:18.450Z,7.70
2022-08-27T04:02:48.847Z,8.47
2022-08-27T04:05:18.502Z,8.33
2022-08-27T04:07:48.579Z,8.63
2022-08-27T04:10:19.906Z,9.17
2022-08-27T04:12:48.775Z,9.00
2022-08-27T04:15:17.597Z,9.17
2022-08-27T04:17:47.731Z,9.17
2022-08-27T04:20:34.687Z,9.67
2022-08-27T04:23:05.135Z,8.77
2022-08-27T04:25:33.976Z,9.20
2022-08-27T04:28:03.223Z,8.93
2022-08-27T04:30:33.011Z,8.50
2022-08-27T04:33:03.081Z,9.23
2022-08-27T04:35:32.009Z,8.97
2022-08-27T04:38:01.258Z,8.03
2022-08-27T04:40:44.599Z,9.00
2022-08-27T04:43:14.623Z,10.90
2022-08-27T04:45:49.505Z,11.57
2022-08-27T04:48:20.166Z,10.50
2022-08-27T04:50:49.201Z,9.60
2022-08-27T04:53:19.380Z,8.80
2022-08-27T04:55:51.415Z,8.23
2022-08-27T04:58:22.287Z,8.90
2022-08-27T05:00:53.631Z,8.80
2022-08-27T05:03:26.117Z,9.40
2022-08-27T05:06:01.295Z,9.13
2022-08-27T05:08:30.519Z,9.30
2022-08-27T05:11:00.403Z,9.10
2022-08-27T05:13:30.458Z,9.03
2022-08-27T05:16:01.514Z,8.93
2022-08-27T05:18:36.376Z,9.67
2022-08-27T05:21:19.253Z,8.90
2022-08-27T05:23:48.671Z,8.87
2022-08-27T05:26:18.132Z,9.07
2022-08-27T05:28:48.211Z,9.10
2022-08-27T05:31:19.391Z,8.47
2022-08-27T05:33:50.382Z,8.87
2022-08-27T05:36:22.110Z,8.67
2022-08-27T05:38:51.417Z,8.60
2022-08-27T05:41:25.092Z,8.97
2022-08-27T05:44:01.359Z,9.13
2022-08-27T05:46:30.937Z,9.30
2022-08-27T05:49:02.033Z,9.00
2022-08-27T05:51:33.582Z,9.10
2022-08-27T05:54:08.788Z,9.50
2022-08-27T05:56:39.664Z,9.93
2022-08-27T05:59:27.439Z,8.70
2022-08-27T06:01:58.892Z,8.90
2022-08-27T06:04:29.757Z,9.67
2022-08-27T06:06:58.914Z,9.50
2022-08-27T06:09:29.847Z,9.17
2022-08-27T06:12:00.659Z,8.77
2022-08-27T06:14:30.589Z,9.47
2022-08-27T06:17:01.290Z,9.73
2022-08-27T06:19:35.023Z,10.30
2022-08-27T06:22:10.126Z,10.23
2022-08-27T06:24:41.801Z,9.67
2022-08-27T06:27:14.816Z,9.33
2022-08-27T06:29:45.023Z,10.20
2022-08-27T06:32:16.609Z,9.27
2022-08-27T06:34:48.829Z,10.70
2022-08-27T06:37:18.950Z,11.00
2022-08-27T06:39:48.458Z,11.30
2022-08-27T06:42:18.116Z,11.07
2022-08-27T06:44:56.623Z,11.40
2022-08-27T06:47:27.356Z,11.30
2022-08-27T06:49:58.392Z,11.10
2022-08-27T06:52:28.457Z,10.83
2022-08-27T06:54:58.539Z,11.33
2022-08-27T06:57:28.643Z,11.20
2022-08-27T06:59:58.668Z,11.30
2022-08-27T07:02:29.943Z,10.80
2022-08-27T07:05:01.644Z,11.60
2022-08-27T07:07:36.468Z,11.27
2022-08-27T07:10:11.029Z,10.90
2022-08-27T07:12:40.090Z,10.67
2022-08-27T07:15:10.458Z,11.60
2022-08-27T07:17:41.058Z,10.77
2022-08-27T07:20:13.983Z,11.77
2022-08-27T07:22:44.093Z,9.67
2022-08-27T07:25:16.687Z,10.23
2022-08-27T07:27:46.764Z,10.37
2022-08-27T07:30:18.243Z,9.43
2022-08-27T07:32:48.078Z,9.47
2022-08-27T07:35:18.711Z,9.83
2022-08-27T07:37:48.162Z,9.93
2022-08-27T07:40:17.859Z,9.53
2022-08-27T07:43:04.653Z,9.73
2022-08-27T07:45:33.780Z,9.20
2022-08-27T07:48:03.206Z,8.63
2022-08-27T07:50:35.146Z,7.77
2022-08-27T07:53:04.296Z,8.33
2022-08-27T07:55:33.229Z,8.13
2022-08-27T07:58:02.156Z,7.70
2022-08-27T08:00:31.425Z,7.77
2022-08-27T08:03:01.622Z,7.70
2022-08-27T08:05:31.263Z,7.27
2022-08-27T08:08:01.712Z,7.10
2022-08-27T08:10:34.992Z,7.00
2022-08-27T08:13:05.406Z,7.20
2022-08-27T08:15:36.679Z,7.20
2022-08-27T08:18:06.758Z,6.93
2022-08-27T08:20:56.958Z,7.10
2022-08-27T08:23:26.658Z,6.73
2022-08-27T08:25:57.613Z,6.90
2022-08-27T08:28:27.631Z,6.57
2022-08-27T08:30:57.612Z,6.90
2022-08-27T08:33:28.502Z,5.70
2022-08-27T08:36:04.286Z,5.40
2022-08-27T08:38:35.385Z,5.50
2022-08-27T08:41:06.415Z,5.00
2022-08-27T08:43:38.180Z,4.17
2022-08-27T08:46:13.122Z,4.27
2022-08-27T08:48:46.616Z,3.90
2022-08-27T08:51:24.213Z,3.90
2022-08-27T08:53:58.300Z,3.97
2022-08-27T08:56:32.445Z,3.40
2022-08-27T08:59:08.659Z,3.90
2022-08-27T09:01:38.671Z,3.50
2022-08-27T09:04:11.812Z,3.60
2022-08-27T09:06:46.419Z,3.63
2022-08-27T09:09:23.903Z,3.50
2022-08-27T09:11:59.181Z,3.30
2022-08-27T09:14:36.730Z,3.10
2022-08-27T09:17:11.475Z,3.40
2022-08-27T09:19:42.771Z,3.13
2022-08-27T09:22:21.590Z,2.87
2022-08-27T09:25:03.237Z,2.80
2022-08-27T09:27:33.433Z,2.83
2022-08-27T09:30:07.858Z,3.00
2022-08-27T09:32:39.203Z,2.70
2022-08-27T09:35:12.982Z,2.60
2022-08-27T09:37:45.843Z,2.50
2022-08-27T09:40:23.695Z,2.60
2022-08-27T09:42:59.154Z,2.23
2022-08-27T09:45:33.981Z,2.50
2022-08-27T09:48:07.287Z,2.20
2022-08-27T09:50:47.240Z,2.40
2022-08-27T09:53:22.246Z,2.23
2022-08-27T09:55:57.986Z,2.47
2022-08-27T09:58:31.800Z,2.30
2022-08-27T10:01:04.501Z,2.27
2022-08-27T10:03:33.852Z,2.30
2022-08-27T10:06:03.198Z,2.20
2022-08-27T10:08:39.834Z,2.30
2022-08-27T10:11:18.238Z,2.00
2022-08-27T10:13:57.378Z,2.23
2022-08-27T10:16:55.011Z,2.00
2022-08-27T10:19:53.489Z,1.90
2022-08-27T10:22:39.414Z,1.90
2022-08-27T10:25:18.016Z,1.80
2022-08-27T10:27:57.657Z,1.80
2022-08-27T10:30:35.714Z,1.70
2022-08-27T10:33:12.984Z,1.80
2022-08-27T10:35:54.747Z,1.40
2022-08-27T10:38:42.414Z,1.60
2022-08-27T10:41:18.380Z,1.43
2022-08-27T10:44:20.962Z,1.50
2022-08-27T10:47:02.898Z,1.60
2022-08-27T10:49:40.909Z,1.60
2022-08-27T10:52:18.648Z,1.70
2022-08-27T10:54:53.977Z,1.70
2022-08-27T10:57:54.269Z,1.60
2022-08-27T11:00:34.116Z,1.40
2022-08-27T11:03:10.760Z,1.70
2022-08-27T11:05:47.497Z,1.40
2022-08-27T11:08:22.447Z,1.30
2022-08-27T11:10:55.513Z,1.63
2022-08-27T11:13:34.498Z,1.57
2022-08-27T11:16:13.131Z,1.50
2022-08-27T11:18:48.773Z,1.60
2022-08-27T11:21:25.412Z,1.80
2022-08-27T11:23:59.381Z,1.73
2022-08-27T11:26:33.940Z,1.40
2022-08-27T11:29:13.797Z,1.30
2022-08-27T11:31:51.204Z,1.57
2022-08-27T11:34:26.615Z,1.23
2022-08-27T11:37:13.709Z,1.27
2022-08-27T11:40:06.151Z,1.40
2022-08-27T11:42:41.190Z,1.50
2022-08-27T11:45:18.175Z,1.40
2022-08-27T11:47:57.609Z,1.40
2022-08-27T11:50:28.464Z,1.30
2022-08-27T11:53:00.969Z,1.50
2022-08-27T11:55:36.610Z,1.50
2022-08-27T11:58:12.179Z,1.30
2022-08-27T12:00:43.674Z,1.40
2022-08-27T12:03:29.837Z,1.30
2022-08-27T12:06:27.216Z,1.40
2022-08-27T12:09:13.927Z,1.43
2022-08-27T12:11:53.498Z,1.53
2022-08-27T12:14:47.178Z,1.60
2022-08-27T12:17:27.896Z,1.70
2022-08-27T12:20:11.336Z,1.60
2022-08-27T12:23:24.611Z,1.70
2022-08-27T12:25:59.024Z,1.77
2022-08-27T12:28:28.994Z,1.90
2022-08-27T12:30:58.881Z,1.90
2022-08-27T12:33:33.891Z,1.87
2022-08-27T12:36:13.247Z,1.80
2022-08-27T12:38:50.496Z,1.90
2022-08-27T12:41:29.275Z,1.77
2022-08-27T12:44:06.991Z,1.90
2022-08-27T12:46:39.750Z,1.83
2022-08-27T12:49:38.664Z,2.00
2022-08-27T12:52:07.949Z,2.00
2022-08-27T12:54:43.635Z,1.90
2022-08-27T12:57:25.010Z,2.10
2022-08-27T13:00:09.654Z,2.00
2022-08-27T13:03:00.515Z,2.10
2022-08-27T13:05:38.935Z,2.00
2022-08-27T13:08:21.996Z,2.33
2022-08-27T13:10:51.790Z,2.40
2022-08-27T13:13:23.118Z,2.17
2022-08-27T13:15:55.620Z,2.00
2022-08-27T13:18:29.480Z,2.20
2022-08-27T13:21:08.907Z,2.50
2022-08-27T13:23:46.056Z,2.47
2022-08-27T13:26:22.119Z,2.07
2022-08-27T13:28:52.721Z,2.30
2022-08-27T13:31:23.764Z,2.50
2022-08-27T13:33:58.486Z,2.33
2022-08-27T13:36:32.143Z,2.50
2022-08-27T13:39:05.856Z,2.20
2022-08-27T13:41:37.431Z,2.40
2022-08-27T13:44:14.226Z,2.30
2022-08-27T13:46:48.495Z,2.40
2022-08-27T13:49:23.369Z,2.47
2022-08-27T13:52:01.386Z,2.20
2022-08-27T13:54:32.834Z,2.30
2022-08-27T13:57:08.333Z,2.20
2022-08-27T13:59:42.136Z,2.60
2022-08-27T14:02:27.173Z,2.40
2022-08-27T14:05:11.209Z,2.40
2022-08-27T14:07:47.369Z,2.60
2022-08-27T14:10:34.149Z,2.60
2022-08-27T14:13:06.503Z,2.60
2022-08-27T14:15:38.370Z,2.50
2022-08-27T14:18:28.999Z,2.47
2022-08-27T14:21:07.840Z,2.47
2022-08-27T14:23:37.281Z,2.60
2022-08-27T14:26:07.663Z,2.57
2022-08-27T14:28:36.937Z,2.40
2022-08-27T14:31:06.508Z,2.60
2022-08-27T14:33:35.392Z,2.80
2022-08-27T14:36:05.217Z,2.73
2022-08-27T14:38:34.985Z,2.90
2022-08-27T14:41:06.793Z,3.00
2022-08-27T14:43:38.072Z,3.03
2022-08-27T14:46:12.403Z,3.27
2022-08-27T14:48:51.432Z,2.90
2022-08-27T14:51:26.398Z,2.80
2022-08-27T14:53:56.390Z,2.73
2022-08-27T14:56:27.178Z,2.83
2022-08-27T14:58:58.353Z,2.83
2022-08-27T15:01:28.131Z,2.83
2022-08-27T15:03:58.943Z,2.97
2022-08-27T15:06:28.516Z,3.40
2022-08-27T15:08:58.099Z,3.20
2022-08-27T15:11:31.270Z,3.23
2022-08-27T15:14:04.246Z,3.00
2022-08-27T15:16:36.737Z,3.00
2022-08-27T15:19:07.494Z,3.30
2022-08-27T15:21:37.746Z,3.40
2022-08-27T15:24:17.947Z,3.43
2022-08-27T15:26:48.160Z,3.13
2022-08-27T15:29:19.288Z,3.67
2022-08-27T15:31:48.446Z,3.53
2022-08-27T15:34:18.284Z,3.63
2022-08-27T15:36:47.568Z,3.90
2022-08-27T15:39:18.099Z,3.80
2022-08-27T15:42:05.803Z,3.70
2022-08-27T15:44:40.087Z,4.10
2022-08-27T15:47:09.082Z,3.87
2022-08-27T15:49:41.162Z,3.77
2022-08-27T15:52:13.235Z,3.80
2022-08-27T15:54:46.543Z,3.77
2022-08-27T15:57:15.568Z,3.57
2022-08-27T15:59:46.610Z,3.70
2022-08-27T16:02:18.912Z,3.70
2022-08-27T16:04:49.404Z,4.40
2022-08-27T16:07:21.134Z,4.07
2022-08-27T16:09:50.975Z,3.67
2022-08-27T16:12:27.244Z,3.80
2022-08-27T16:14:58.283Z,3.60
2022-08-27T16:17:27.952Z,4.27
2022-08-27T16:19:57.480Z,3.60
2022-08-27T16:22:28.410Z,4.13
2022-08-27T16:24:57.472Z,4.13
2022-08-27T16:27:26.586Z,4.07
2022-08-27T16:29:55.876Z,3.83
2022-08-27T16:32:28.847Z,4.43
2022-08-27T16:34:57.975Z,4.90
2022-08-27T16:37:27.483Z,5.50
2022-08-27T16:39:56.655Z,5.30
2022-08-27T16:42:26.683Z,5.23
2022-08-27T16:44:57.061Z,5.53
2022-08-27T16:47:27.975Z,5.33
2022-08-27T16:50:22.893Z,5.67
2022-08-27T16:52:56.112Z,5.27
2022-08-27T16:55:25.718Z,5.27
2022-08-27T16:57:55.570Z,6.10
2022-08-27T17:00:25.040Z,5.30
2022-08-27T17:02:55.748Z,5.63
2022-08-27T17:05:34.118Z,5.80
2022-08-27T17:08:05.095Z,5.67
2022-08-27T17:10:39.183Z,5.60
2022-08-27T17:13:09.665Z,5.90
2022-08-27T17:15:39.572Z,6.07
2022-08-27T17:18:09.966Z,5.77
2022-08-27T17:20:38.833Z,6.17
2022-08-27T17:23:12.781Z,5.87
2022-08-27T17:25:41.823Z,6.17
2022-08-27T17:28:11.478Z,6.30
2022-08-27T17:30:41.637Z,5.93
2022-08-27T17:33:20.497Z,5.90
2022-08-27T17:35:49.687Z,5.97
2022-08-27T17:38:19.020Z,6.07
2022-08-27T17:40:52.153Z,5.70
2022-08-27T17:43:21.845Z,6.00
2022-08-27T17:45:51.087Z,6.37
2022-08-27T17:48:26.434Z,6.33
2022-08-27T17:50:55.625Z,6.47
2022-08-27T17:53:24.661Z,6.30
2022-08-27T17:55:53.675Z,6.30
2022-08-27T17:58:22.879Z,6.37
2022-08-27T18:00:52.994Z,6.00
2022-08-27T18:03:24.004Z,5.57
2022-08-27T18:05:53.890Z,5.73
2022-08-27T18:08:23.171Z,5.63
2022-08-27T18:10:52.744Z,5.50
2022-08-27T18:13:21.679Z,5.37
2022-08-27T18:15:52.204Z,5.67
2022-08-27T18:18:22.891Z,5.60
2022-08-27T18:20:51.912Z,5.93
2022-08-27T18:23:22.802Z,5.70
2022-08-27T18:25:52.114Z,5.80
2022-08-27T18:28:22.288Z,5.70
2022-08-27T18:30:52.563Z,6.30
2022-08-27T18:33:23.505Z,5.83
2022-08-27T18:35:53.163Z,6.20
2022-08-27T18:38:22.281Z,6.00
2022-08-27T18:40:51.879Z,5.33
2022-08-27T18:43:23.192Z,5.87
2022-08-27T18:45:52.464Z,5.70
2022-08-27T18:48:24.167Z,5.30
2022-08-27T18:50:58.442Z,5.50
2022-08-27T18:53:30.715Z,5.53
2022-08-27T18:56:02.368Z,5.73
2022-08-27T18:58:31.599Z,5.90
2022-08-27T19:01:03.479Z,5.60
2022-08-27T19:03:35.739Z,6.33
2022-08-27T19:06:08.744Z,6.10
2022-08-27T19:08:38.450Z,6.13
2022-08-27T19:11:07.502Z,5.87
2022-08-27T19:13:37.328Z,5.73
2022-08-27T19:16:09.883Z,6.13
2022-08-27T19:18:44.765Z,5.83
2022-08-27T19:21:13.821Z,5.83
2022-08-27T19:23:44.082Z,6.17
2022-08-27T19:26:19.248Z,6.37
2022-08-27T19:28:49.349Z,5.87
2022-08-27T19:31:19.174Z,6.23
2022-08-27T19:33:50.328Z,6.27
2022-08-27T19:36:23.181Z,6.67
2022-08-27T19:38:55.539Z,6.27
2022-08-27T19:41:27.772Z,6.33
2022-08-27T19:43:58.603Z,6.60
2022-08-27T19:46:29.003Z,6.30
2022-08-27T19:48:59.734Z,6.13
2022-08-27T19:51:29.013Z,6.90
2022-08-27T19:53:58.206Z,6.27
2022-08-27T19:56:28.883Z,7.13
2022-08-27T19:59:07.657Z,6.30
2022-08-27T20:01:42.975Z,6.73
2022-08-27T20:04:13.762Z,6.80
2022-08-27T20:06:43.394Z,6.17
2022-08-27T20:09:16.076Z,7.10
2022-08-27T20:11:46.063Z,7.27
2022-08-27T20:14:15.244Z,6.73
2022-08-27T20:16:47.124Z,6.87
2022-08-27T20:19:20.040Z,6.67
2022-08-27T20:21:49.193Z,7.10
2022-08-27T20:24:19.712Z,6.60
2022-08-27T20:26:49.059Z,6.30
2022-08-27T20:29:32.096Z,6.40
2022-08-27T20:32:02.048Z,8.40
2022-08-27T20:34:35.116Z,6.80
2022-08-27T20:37:06.156Z,6.67
2022-08-27T20:39:36.263Z,7.00
2022-08-27T20:42:06.445Z,7.07
2022-08-27T20:44:35.472Z,6.70
2022-08-27T20:47:05.747Z,6.93
2022-08-27T20:49:37.859Z,6.67
2022-08-27T20:52:11.730Z,6.63
2022-08-27T20:54:42.260Z,7.60
2022-08-27T20:57:11.382Z,6.87
2022-08-27T20:59:59.515Z,7.30
2022-08-27T21:02:30.739Z,7.43
2022-08-27T21:05:07.484Z,6.83
2022-08-27T21:07:36.966Z,7.37
2022-08-27T21:10:07.908Z,7.30
2022-08-27T21:12:37.641Z,7.20
2022-08-27T21:15:09.962Z,7.60
2022-08-27T21:17:40.103Z,7.30
2022-08-27T21:20:12.302Z,7.20
2022-08-27T21:22:43.716Z,7.23
2022-08-27T21:25:14.586Z,8.10
2022-08-27T21:27:44.886Z,8.10
2022-08-27T21:30:14.586Z,7.77
2022-08-27T21:32:43.707Z,8.17
2022-08-27T21:35:14.342Z,8.80
2022-08-27T21:37:43.729Z,7.80
2022-08-27T21:40:13.107Z,8.43
2022-08-27T21:42:42.642Z,8.10
2022-08-27T21:45:12.281Z,8.20
2022-08-27T21:47:41.723Z,9.07
2022-08-27T21:50:11.781Z,7.83
2022-08-27T21:52:42.530Z,8.40
2022-08-27T21:55:12.261Z,8.50
2022-08-27T21:57:41.838Z,9.13
2022-08-27T22:00:22.891Z,8.37
2022-08-27T22:02:52.110Z,8.90
2022-08-27T22:05:21.290Z,8.50
2022-08-27T22:07:51.544Z,9.57
2022-08-27T22:10:21.857Z,8.83
2022-08-27T22:12:55.658Z,8.47
2022-08-27T22:15:29.825Z,8.20
2022-08-27T22:17:59.400Z,8.00
2022-08-27T22:20:28.741Z,8.33
2022-08-27T22:22:59.231Z,8.60
2022-08-27T22:25:29.457Z,8.53
2022-08-27T22:27:58.499Z,8.60
2022-08-27T22:30:28.563Z,8.40
2022-08-27T22:32:58.743Z,8.23
2022-08-27T22:35:28.007Z,8.20
2022-08-27T22:37:59.543Z,8.20
2022-08-27T22:40:30.584Z,9.00
2022-08-27T22:42:59.862Z,8.43
2022-08-27T22:45:30.094Z,8.87
2022-08-27T22:47:59.628Z,9.03
2022-08-27T22:50:28.654Z,8.97
2022-08-27T22:52:59.174Z,8.90
2022-08-27T22:55:30.220Z,9.30
2022-08-27T22:58:02.076Z,9.07
2022-08-27T23:00:34.453Z,9.47
2022-08-27T23:03:06.310Z,9.07
2022-08-27T23:05:40.537Z,9.10
2022-08-27T23:08:14.140Z,8.63
2022-08-27T23:10:44.831Z,8.93
2022-08-27T23:13:14.503Z,9.40
2022-08-27T23:15:43.818Z,9.50
2022-08-27T23:18:13.808Z,9.63
2022-08-27T23:20:43.928Z,9.07
2022-08-27T23:23:17.530Z,9.53
2022-08-27T23:26:07.002Z,9.13
2022-08-27T23:28:36.079Z,9.60
2022-08-27T23:31:05.610Z,9.47
2022-08-27T23:33:34.576Z,9.57
2022-08-27T23:36:05.019Z,9.13
2022-08-27T23:38:35.858Z,9.53
2022-08-27T23:41:07.715Z,9.43
2022-08-27T23:43:37.606Z,9.27
2022-08-27T23:46:07.081Z,9.17
2022-08-27T23:48:36.190Z,9.83
2022-08-27T23:51:05.583Z,9.77
2022-08-27T23:53:36.265Z,9.77
2022-08-27T23:56:05.851Z,9.20
2022-08-27T23:58:34.987Z,9.57
